createdAt,value
2023-05-18T00:01:25.680Z,54.50
2023-05-18T00:06:28.005Z,54.70
2023-05-18T00:11:30.270Z,54.80
2023-05-18T00:16:34.031Z,54.80
2023-05-18T00:21:36.333Z,55.20
2023-05-18T00:26:38.810Z,55.10
2023-05-18T00:31:43.071Z,55.10
2023-05-18T00:36:45.309Z,55.20
2023-05-18T00:41:47.639Z,55.30
2023-05-18T00:46:51.405Z,55.40
2023-05-18T00:51:55.196Z,55.30
2023-05-18T00:56:57.620Z,55.30
2023-05-18T01:02:01.466Z,55.30
2023-05-18T01:07:04.007Z,55.10
2023-05-18T01:12:15.368Z,55.20
2023-05-18T01:17:29.364Z,55.50
2023-05-18T01:22:44.164Z,55.60
2023-05-18T01:27:49.030Z,55.40
2023-05-18T01:32:51.412Z,55.30
2023-05-18T01:37:53.729Z,55.10
2023-05-18T01:43:04.636Z,55.40
2023-05-18T01:48:10.738Z,55.90
2023-05-18T01:53:20.402Z,55.90
2023-05-18T01:58:25.144Z,55.90
2023-05-18T02:03:27.525Z,56.20
2023-05-18T02:08:29.903Z,56.20
2023-05-18T02:13:33.707Z,56.70
2023-05-18T02:18:36.013Z,57.30
2023-05-18T02:23:38.364Z,57.10
2023-05-18T02:28:42.207Z,57.40
2023-05-18T02:33:44.464Z,57.70
2023-05-18T02:38:46.782Z,57.90
2023-05-18T02:43:50.474Z,58.00
2023-05-18T02:48:52.811Z,58.40
2023-05-18T02:53:55.263Z,58.20
2023-05-18T02:58:59.012Z,58.30
2023-05-18T03:04:01.464Z,58.70
2023-05-18T03:09:03.769Z,58.60
2023-05-18T03:14:07.469Z,58.50
2023-05-18T03:19:09.907Z,58.80
2023-05-18T03:24:12.226Z,58.70
2023-05-18T03:29:15.989Z,58.90
2023-05-18T03:34:18.393Z,59.20
2023-05-18T03:39:20.799Z,59.40
2023-05-18T03:44:24.613Z,59.50
2023-05-18T03:49:26.952Z,60.40
2023-05-18T03:54:29.221Z,60.30
2023-05-18T03:59:33.030Z,59.90
2023-05-18T04:04:35.302Z,59.50
2023-05-18T04:09:37.564Z,64.20
2023-05-18T04:14:41.289Z,62.00
2023-05-18T04:19:43.852Z,62.20
2023-05-18T04:24:46.211Z,62.20
2023-05-18T04:29:49.933Z,62.40
2023-05-18T04:34:52.281Z,62.10
2023-05-18T04:39:54.830Z,61.70
2023-05-18T04:44:58.506Z,61.40
2023-05-18T04:50:00.833Z,61.30
2023-05-18T04:55:03.465Z,61.10
2023-05-18T05:00:09.647Z,61.10
2023-05-18T05:05:11.968Z,61.50
2023-05-18T05:10:14.332Z,61.30
2023-05-18T05:15:18.707Z,61.00
2023-05-18T05:20:21.741Z,60.80
2023-05-18T05:25:24.044Z,60.30
2023-05-18T05:30:27.918Z,60.30
2023-05-18T05:35:32.682Z,60.40
2023-05-18T05:40:35.956Z,59.80
2023-05-18T05:45:39.894Z,59.30
2023-05-18T05:50:42.234Z,59.00
2023-05-18T05:55:44.575Z,58.90
2023-05-18T06:00:48.276Z,58.90
2023-05-18T06:05:50.584Z,58.00
2023-05-18T06:10:54.557Z,57.80
2023-05-18T06:15:59.122Z,57.50
2023-05-18T06:21:01.368Z,57.10
2023-05-18T06:26:03.747Z,56.30
2023-05-18T06:31:07.587Z,55.90
2023-05-18T06:36:10.140Z,50.80
2023-05-18T06:41:12.631Z,52.70
2023-05-18T06:46:21.365Z,52.20
2023-05-18T06:51:23.809Z,50.90
2023-05-18T06:56:26.145Z,49.70
2023-05-18T07:01:30.013Z,51.40
2023-05-18T07:06:32.444Z,50.40
2023-05-18T07:11:35.029Z,50.40
2023-05-18T07:16:38.912Z,49.30
2023-05-18T07:21:41.479Z,49.90
2023-05-18T07:26:43.946Z,48.90
2023-05-18T07:31:49.917Z,48.80
2023-05-18T07:36:52.588Z,47.30
2023-05-18T07:41:57.555Z,47.90
2023-05-18T07:47:01.664Z,48.30
2023-05-18T07:52:04.744Z,48.00
2023-05-18T07:57:32.768Z,47.80
2023-05-18T08:40:14.980Z,47.30
2023-05-18T08:45:22.909Z,47.70
2023-05-18T08:50:27.035Z,47.10
2023-05-18T08:55:31.983Z,46.80
2023-05-18T09:00:35.209Z,45.70
2023-05-18T09:05:39.651Z,46.10
2023-05-18T09:10:44.013Z,45.90
2023-05-18T09:15:46.847Z,45.40
2023-05-18T09:20:49.274Z,43.10
2023-05-18T09:25:53.220Z,44.50
2023-05-18T09:30:55.617Z,45.20
2023-05-18T09:35:57.967Z,45.50
2023-05-18T09:41:02.032Z,45.60
2023-05-18T09:46:09.084Z,45.50
2023-05-18T09:51:12.034Z,45.90
2023-05-18T09:56:18.298Z,43.60
2023-05-18T10:01:28.394Z,44.10
2023-05-18T10:06:33.813Z,43.00
2023-05-18T10:11:37.630Z,41.90
2023-05-18T10:16:41.808Z,42.10
2023-05-18T10:21:44.931Z,36.60
2023-05-18T10:26:53.241Z,37.20
2023-05-18T10:32:01.939Z,36.80
2023-05-18T10:37:07.956Z,37.50
2023-05-18T10:42:16.114Z,37.90
2023-05-18T10:47:19.491Z,38.10
2023-05-18T10:52:23.053Z,38.90
2023-05-18T10:57:33.823Z,39.70
2023-05-18T11:02:39.592Z,38.50
2023-05-18T11:07:45.862Z,37.90
2023-05-18T11:12:49.734Z,37.60
2023-05-18T11:18:13.784Z,37.70
2023-05-18T11:23:16.203Z,36.00
2023-05-18T11:28:22.967Z,36.10
2023-05-18T11:33:28.387Z,36.50
2023-05-18T11:38:56.364Z,34.60
2023-05-18T11:44:17.348Z,36.60
2023-05-18T11:49:24.221Z,36.80
2023-05-18T11:54:26.692Z,37.00
2023-05-18T11:59:34.749Z,37.20
2023-05-18T12:04:42.520Z,37.10
2023-05-18T12:09:45.479Z,35.80
2023-05-18T12:14:55.432Z,36.60
2023-05-18T12:19:57.756Z,36.90
2023-05-18T12:25:00.201Z,36.60
2023-05-18T12:30:04.456Z,36.60
2023-05-18T12:35:08.471Z,36.50
2023-05-18T12:40:12.269Z,37.30
2023-05-18T12:45:16.223Z,37.60
2023-05-18T12:50:18.674Z,37.60
2023-05-18T12:55:22.407Z,37.10
2023-05-18T13:00:26.384Z,37.20
2023-05-18T13:05:28.909Z,37.70
2023-05-18T13:10:32.209Z,38.00
2023-05-18T13:15:37.322Z,36.80
2023-05-18T13:20:41.386Z,36.40
2023-05-18T13:25:46.881Z,37.10
2023-05-18T13:30:51.257Z,38.70
2023-05-18T13:35:53.632Z,38.90
2023-05-18T13:40:55.993Z,38.60
2023-05-18T13:46:00.149Z,38.80
2023-05-18T13:51:03.248Z,39.50
2023-05-18T13:56:06.150Z,39.90
2023-05-18T14:01:11.279Z,39.90
2023-05-18T14:06:16.138Z,40.10
2023-05-18T14:11:18.529Z,40.00
2023-05-18T14:16:22.583Z,39.80
2023-05-18T14:21:25.056Z,38.90
2023-05-18T14:26:27.391Z,39.40
2023-05-18T14:31:31.545Z,40.10
2023-05-18T14:36:33.882Z,40.50
2023-05-18T14:41:36.333Z,40.70
2023-05-18T14:46:40.416Z,40.80
2023-05-18T14:51:42.728Z,40.60
2023-05-18T14:56:45.165Z,40.70
2023-05-18T15:01:49.103Z,40.90
2023-05-18T15:06:51.512Z,41.10
2023-05-18T15:11:53.924Z,41.30
2023-05-18T15:16:57.690Z,41.30
2023-05-18T15:22:00.325Z,41.50
2023-05-18T15:27:02.959Z,41.30
2023-05-18T15:32:08.105Z,41.40
2023-05-18T15:37:10.718Z,41.90
2023-05-18T15:42:13.379Z,42.30
2023-05-18T15:47:17.520Z,42.40
2023-05-18T15:52:19.864Z,42.50
2023-05-18T15:57:22.348Z,42.80
2023-05-18T16:02:26.250Z,42.70
2023-05-18T16:07:28.672Z,43.10
2023-05-18T16:12:31.108Z,43.10
2023-05-18T16:17:34.969Z,42.90
2023-05-18T16:22:37.432Z,43.00
2023-05-18T16:27:39.736Z,43.20
2023-05-18T16:32:43.805Z,43.40
2023-05-18T16:37:46.523Z,43.70
2023-05-18T16:42:48.843Z,43.60
2023-05-18T16:47:52.810Z,43.80
2023-05-18T16:52:55.218Z,44.10
2023-05-18T16:57:57.574Z,44.10
2023-05-18T17:03:01.365Z,44.30
2023-05-18T17:08:05.512Z,44.50
2023-05-18T17:13:08.179Z,44.70
2023-05-18T17:18:12.292Z,45.10
2023-05-18T17:23:14.965Z,45.40
2023-05-18T17:28:17.311Z,45.70
2023-05-18T17:33:21.258Z,45.80
2023-05-18T17:38:23.613Z,46.10
2023-05-18T17:43:27.509Z,46.30
2023-05-18T17:48:31.857Z,46.50
2023-05-18T17:53:34.355Z,46.80
2023-05-18T17:58:36.732Z,47.00
2023-05-18T18:03:40.611Z,47.90
2023-05-18T18:08:43.290Z,47.50
2023-05-18T18:13:45.613Z,47.50
2023-05-18T18:18:49.979Z,47.90
2023-05-18T18:23:52.424Z,48.40
2023-05-18T18:28:54.789Z,48.30
2023-05-18T18:33:58.652Z,48.70
2023-05-18T18:39:00.937Z,49.00
2023-05-18T18:44:03.485Z,49.20
2023-05-18T18:49:07.224Z,49.40
2023-05-18T18:54:10.003Z,49.90
2023-05-18T18:59:12.626Z,50.00
2023-05-18T19:04:17.051Z,50.30
2023-05-18T19:09:20.462Z,50.70
2023-05-18T19:14:22.775Z,50.70
2023-05-18T19:19:29.734Z,50.90
2023-05-18T19:24:36.316Z,51.30
2023-05-18T19:29:38.884Z,51.50
2023-05-18T19:34:42.595Z,51.80
2023-05-18T19:39:53.536Z,52.10
2023-05-18T19:44:59.009Z,52.30
2023-05-18T19:50:06.274Z,52.70
2023-05-18T19:55:11.826Z,53.00
2023-05-18T20:00:23.590Z,52.50
2023-05-18T20:05:34.918Z,52.60
2023-05-18T20:10:44.679Z,53.50
2023-05-18T20:15:53.519Z,53.40
2023-05-18T20:20:57.863Z,54.00
2023-05-18T20:26:00.240Z,54.20
2023-05-18T20:31:09.913Z,54.30
2023-05-18T20:36:15.727Z,55.00
2023-05-18T20:41:23.483Z,55.10
2023-05-18T20:46:26.178Z,55.60
2023-05-18T20:51:30.705Z,55.30
2023-05-18T20:56:35.893Z,55.80
2023-05-18T21:01:38.783Z,55.90
2023-05-18T21:06:43.037Z,56.10
2023-05-18T21:11:46.863Z,56.50
2023-05-18T21:16:49.666Z,56.50
2023-05-18T21:21:53.415Z,56.80
2023-05-18T21:26:55.806Z,57.20
2023-05-18T21:31:58.191Z,57.20
2023-05-18T21:37:02.122Z,57.50
2023-05-18T21:42:04.795Z,57.90
2023-05-18T21:47:07.243Z,58.00
2023-05-18T21:52:10.957Z,58.20
2023-05-18T21:57:13.275Z,58.50
2023-05-18T22:02:15.614Z,58.80
2023-05-18T22:07:19.387Z,59.10
2023-05-18T22:12:21.739Z,59.70
2023-05-18T22:17:23.981Z,59.60
2023-05-18T22:22:30.679Z,59.90
2023-05-18T22:27:33.418Z,60.40
2023-05-18T22:32:35.895Z,60.30
2023-05-18T22:37:40.168Z,60.70
2023-05-18T22:42:42.469Z,61.40
2023-05-18T22:47:44.780Z,61.30
2023-05-18T22:52:48.540Z,61.40
2023-05-18T22:57:50.808Z,62.10
2023-05-18T23:02:53.190Z,62.00
2023-05-18T23:07:57.077Z,62.30
2023-05-18T23:12:59.448Z,62.90
2023-05-18T23:18:02.287Z,62.70
2023-05-18T23:23:06.002Z,63.00
2023-05-18T23:28:08.236Z,63.60
2023-05-18T23:33:11.350Z,63.50
2023-05-18T23:38:16.172Z,63.60
2023-05-18T23:43:18.987Z,64.20
2023-05-18T23:48:21.907Z,64.00
2023-05-18T23:53:26.241Z,64.10
2023-05-18T23:58:29.430Z,64.60
